CSAV Brasilia — A8VK7 — position and weather

sailwx.info

Track history (hours):
 
Tides and Currents Weather Stations Pressure Air Temp Water Temp Dewpoint Dewpoint Depression Visibility Wind Speed Wind Dir Waves Ship Positions

CSAV Brasilia

Last reported at 2015-Jul-30 04:33 UTC. Time now 2015-Jul-30 06:07 UTC.
Position N 39°15' W 076°33'.

Length 294 m; draft 10.4 m.

Type: Ship (hazmat cat A). MMSI: 636092017.

Date/timePositionNaut miles runAvg speedWind from/ knotsBaromVisibWave heightAir tempDewpointWater temp
2015-Jul-30 04:33N 39°15' W 076°33'0 0.0
2015-Jul-30 03:33N 39°15' W 076°33'0 0.0
2015-Jul-30 02:31N 39°15' W 076°33'0 0.0
2015-Jul-30 01:31N 39°15' W 076°33'0 0.0
2015-Jul-30 00:31N 39°15' W 076°33'0 0.0
2015-Jul-29 23:31N 39°15' W 076°33'0 0.0
2015-Jul-29 22:31N 39°15' W 076°33'0 0.0
2015-Jul-29 21:31N 39°15' W 076°33'0 0.0
2015-Jul-29 20:32N 39°15' W 076°33'0 0.0
2015-Jul-29 19:22N 39°15' W 076°33'0 0.5
2015-Jul-29 18:34N 39°15' W 076°32'7 6.5
2015-Jul-29 17:34N 39°11' W 076°26'1413.7
2015-Jul-29 16:33N 38°57' W 076°23'3918.5
2015-Jul-29 14:27N 38°18' W 076°18'2319.7
2015-Jul-29 13:18N 37°56' W 076°10'1519.7
2015-Jul-29 12:31N 37°41' W 076°10'2517.2
2015-Jul-29 11:04N 37°16' W 076°07'3614.2
2015-Jul-29 08:32N 36°49' W 075°37'7322.4
2015-Jul-29 05:16N 37°52' W 074°49'1623.2
2015-Jul-29 04:34N 38°06' W 074°38'2323.0
2015-Jul-29 03:34N 38°25' W 074°23'2322.7
2015-Jul-29 02:33N 38°45' W 074°08'2222.1
2015-Jul-29 01:33N 39°05' W 073°55'2222.4
2015-Jul-29 00:33N 39°27' W 073°54'2222.0
2015-Jul-28 23:33N 39°49' W 073°52'2222.0
2015-Jul-28 22:33N 40°11' W 073°50'1615.6
2015-Jul-28 21:33N 40°26' W 073°50'1313.2
2015-Jul-28 20:33N 40°36' W 074°02'6 6.2
2015-Jul-28 19:33N 40°40' W 074°09'2 1.5
2015-Jul-28 18:28N 40°41' W 074°09'0 0.0
2015-Jul-28 17:31N 40°41' W 074°09'0 0.0
2015-Jul-28 16:31N 40°41' W 074°09'0 0.0
2015-Jul-28 15:31N 40°41' W 074°09'0 0.0
2015-Jul-28 14:31N 40°41' W 074°09'0 0.0
2015-Jul-28 13:28N 40°41' W 074°09'0 0.0
2015-Jul-28 12:31N 40°41' W 074°09'0 0.0
2015-Jul-28 11:31N 40°41' W 074°09'0 0.0
2015-Jul-28 10:33N 40°41' W 074°09'0 0.0
2015-Jul-28 09:33N 40°41' W 074°09'0 0.0
2015-Jul-28 08:33N 40°41' W 074°09'0 0.0
2015-Jul-28 07:33N 40°41' W 074°09'0 0.0
2015-Jul-28 06:33N 40°41' W 074°09'0 0.0
2015-Jul-28 05:30N 40°41' W 074°09'0 0.0
2015-Jul-28 04:24N 40°41' W 074°09'0 0.1
2015-Jul-28 03:33N 40°41' W 074°09'0 0.0
2015-Jul-28 02:33N 40°41' W 074°09'0 0.0
2015-Jul-28 01:33N 40°41' W 074°09'0 0.0
2015-Jul-28 00:32N 40°41' W 074°09'0 0.0
2015-Jul-27 23:32N 40°41' W 074°09'0 0.0
2015-Jul-27 22:33N 40°41' W 074°09'0 0.0
2015-Jul-27 21:33N 40°41' W 074°09'0 0.0
2015-Jul-27 20:34N 40°41' W 074°09'0 0.0
2015-Jul-27 19:34N 40°41' W 074°09'0 0.0
2015-Jul-27 18:33N 40°41' W 074°09'0 0.0
2015-Jul-27 17:33N 40°41' W 074°09'0 0.0
2015-Jul-27 16:33N 40°41' W 074°09'0 0.0
2015-Jul-27 15:33N 40°41' W 074°09'1 0.9
2015-Jul-27 14:33N 40°41' W 074°08'4 3.7
2015-Jul-27 13:33N 40°39' W 074°04'1010.1
2015-Jul-27 12:33N 40°30' W 073°57'1211.8
2015-Jul-27 11:31N 40°27' W 073°42'3216.6
2015-Jul-27 09:33N 40°30' W 072°59'3416.0
2015-Jul-27 07:28N 40°32' W 072°15'1718.8
2015-Jul-27 06:33N 40°32' W 071°52'2119.0
2015-Jul-27 05:28N 40°32' W 071°25'1819.2
2015-Jul-27 04:33N 40°32' W 071°02'2519.3
2015-Jul-27 03:15N 40°33' W 070°29'1919.3
2015-Jul-27 02:16N 40°33' W 070°04'1419.2
2015-Jul-27 01:33N 40°33' W 069°46'61218.2
2015-Jul-25 16:00N 41°30' W 056°18'   050 / 241012.9 5.4 1.520.318.721.2
2015-Jul-20 19:31N 49°57' W 003°10'1818.4
2015-Jul-20 18:33N 50°01' W 002°44'8220.6
2015-Jul-20 14:33N 49°40' W 000°40'1918.7
2015-Jul-20 13:33N 49°34' W 000°13'1414.0
2015-Jul-20 12:33N 49°28' E 000°07'1 1.4
2015-Jul-20 11:33N 49°28' E 000°09'0 0.0
2015-Jul-20 10:33N 49°28' E 000°09'0 0.0
2015-Jul-20 09:33N 49°28' E 000°09'0 0.0
2015-Jul-20 08:33N 49°28' E 000°09'0 0.0
2015-Jul-20 07:33N 49°28' E 000°09'0 0.0
2015-Jul-20 06:33N 49°28' E 000°09'0 0.0
2015-Jul-20 05:33N 49°28' E 000°09'0 0.0
2015-Jul-20 04:33N 49°28' E 000°09'  
Track history (hours):
 
Tides and Currents Weather Stations Pressure Air Temp Water Temp Dewpoint Dewpoint Depression Visibility Wind Speed Wind Dir Waves Ship Positions

CSAV Brasilia

Last reported at 2015-Jul-30 04:33 UTC. Time now 2015-Jul-30 06:07 UTC.
Position N 39°15' W 076°33'.

Length 294 m; draft 10.4 m.

Type: Ship (hazmat cat A). MMSI: 636092017.

Date/timePositionNaut miles runAvg speedWind from/ knotsBaromVisibWave heightAir tempDewpointWater temp
2015-Jul-30 04:33N 39°15' W 076°33'0 0.0
2015-Jul-30 03:33N 39°15' W 076°33'0 0.0
2015-Jul-30 02:31N 39°15' W 076°33'0 0.0
2015-Jul-30 01:31N 39°15' W 076°33'0 0.0
2015-Jul-30 00:31N 39°15' W 076°33'0 0.0
2015-Jul-29 23:31N 39°15' W 076°33'0 0.0
2015-Jul-29 22:31N 39°15' W 076°33'0 0.0
2015-Jul-29 21:31N 39°15' W 076°33'0 0.0
2015-Jul-29 20:32N 39°15' W 076°33'0 0.0
2015-Jul-29 19:22N 39°15' W 076°33'0 0.5
2015-Jul-29 18:34N 39°15' W 076°32'7 6.5
2015-Jul-29 17:34N 39°11' W 076°26'1413.7
2015-Jul-29 16:33N 38°57' W 076°23'3918.5
2015-Jul-29 14:27N 38°18' W 076°18'2319.7
2015-Jul-29 13:18N 37°56' W 076°10'1519.7
2015-Jul-29 12:31N 37°41' W 076°10'2517.2
2015-Jul-29 11:04N 37°16' W 076°07'3614.2
2015-Jul-29 08:32N 36°49' W 075°37'7322.4
2015-Jul-29 05:16N 37°52' W 074°49'1623.2
2015-Jul-29 04:34N 38°06' W 074°38'2323.0
2015-Jul-29 03:34N 38°25' W 074°23'2322.7
2015-Jul-29 02:33N 38°45' W 074°08'2222.1
2015-Jul-29 01:33N 39°05' W 073°55'2222.4
2015-Jul-29 00:33N 39°27' W 073°54'2222.0
2015-Jul-28 23:33N 39°49' W 073°52'2222.0
2015-Jul-28 22:33N 40°11' W 073°50'1615.6
2015-Jul-28 21:33N 40°26' W 073°50'1313.2
2015-Jul-28 20:33N 40°36' W 074°02'6 6.2
2015-Jul-28 19:33N 40°40' W 074°09'2 1.5
2015-Jul-28 18:28N 40°41' W 074°09'0 0.0
2015-Jul-28 17:31N 40°41' W 074°09'0 0.0
2015-Jul-28 16:31N 40°41' W 074°09'0 0.0
2015-Jul-28 15:31N 40°41' W 074°09'0 0.0
2015-Jul-28 14:31N 40°41' W 074°09'0 0.0
2015-Jul-28 13:28N 40°41' W 074°09'0 0.0
2015-Jul-28 12:31N 40°41' W 074°09'0 0.0
2015-Jul-28 11:31N 40°41' W 074°09'0 0.0
2015-Jul-28 10:33N 40°41' W 074°09'0 0.0
2015-Jul-28 09:33N 40°41' W 074°09'0 0.0
2015-Jul-28 08:33N 40°41' W 074°09'0 0.0
2015-Jul-28 07:33N 40°41' W 074°09'0 0.0
2015-Jul-28 06:33N 40°41' W 074°09'0 0.0
2015-Jul-28 05:30N 40°41' W 074°09'0 0.0
2015-Jul-28 04:24N 40°41' W 074°09'0 0.1
2015-Jul-28 03:33N 40°41' W 074°09'0 0.0
2015-Jul-28 02:33N 40°41' W 074°09'0 0.0
2015-Jul-28 01:33N 40°41' W 074°09'0 0.0
2015-Jul-28 00:32N 40°41' W 074°09'0 0.0
2015-Jul-27 23:32N 40°41' W 074°09'0 0.0
2015-Jul-27 22:33N 40°41' W 074°09'0 0.0
2015-Jul-27 21:33N 40°41' W 074°09'0 0.0
2015-Jul-27 20:34N 40°41' W 074°09'0 0.0
2015-Jul-27 19:34N 40°41' W 074°09'0 0.0
2015-Jul-27 18:33N 40°41' W 074°09'0 0.0
2015-Jul-27 17:33N 40°41' W 074°09'0 0.0
2015-Jul-27 16:33N 40°41' W 074°09'0 0.0
2015-Jul-27 15:33N 40°41' W 074°09'1 0.9
2015-Jul-27 14:33N 40°41' W 074°08'4 3.7
2015-Jul-27 13:33N 40°39' W 074°04'1010.1
2015-Jul-27 12:33N 40°30' W 073°57'1211.8
2015-Jul-27 11:31N 40°27' W 073°42'3216.6
2015-Jul-27 09:33N 40°30' W 072°59'3416.0
2015-Jul-27 07:28N 40°32' W 072°15'1718.8
2015-Jul-27 06:33N 40°32' W 071°52'2119.0
2015-Jul-27 05:28N 40°32' W 071°25'1819.2
2015-Jul-27 04:33N 40°32' W 071°02'2519.3
2015-Jul-27 03:15N 40°33' W 070°29'1919.3
2015-Jul-27 02:16N 40°33' W 070°04'1419.2
2015-Jul-27 01:33N 40°33' W 069°46'61218.2
2015-Jul-25 16:00N 41°30' W 056°18'   050 / 241012.9 5.4 1.520.318.721.2
2015-Jul-20 19:31N 49°57' W 003°10'1818.4
2015-Jul-20 18:33N 50°01' W 002°44'8220.6
2015-Jul-20 14:33N 49°40' W 000°40'1918.7
2015-Jul-20 13:33N 49°34' W 000°13'1414.0
2015-Jul-20 12:33N 49°28' E 000°07'1 1.4
2015-Jul-20 11:33N 49°28' E 000°09'0 0.0
2015-Jul-20 10:33N 49°28' E 000°09'0 0.0
2015-Jul-20 09:33N 49°28' E 000°09'0 0.0
2015-Jul-20 08:33N 49°28' E 000°09'0 0.0
2015-Jul-20 07:33N 49°28' E 000°09'0 0.0
2015-Jul-20 06:33N 49°28' E 000°09'0 0.0
2015-Jul-20 05:33N 49°28' E 000°09'0 0.0
2015-Jul-20 04:33N 49°28' E 000°09'  

Dump ship's entire track history